createdAt,value
2022-10-11T00:01:17.726Z,8.97
2022-10-11T00:03:44.167Z,7.75
2022-10-11T00:06:10.619Z,7.22
2022-10-11T00:08:37.154Z,7.85
2022-10-11T00:11:06.967Z,7.28
2022-10-11T00:13:34.106Z,7.97
2022-10-11T00:16:00.920Z,7.88
2022-10-11T00:18:27.521Z,6.43
2022-10-11T00:21:02.420Z,6.80
2022-10-11T00:23:29.081Z,8.40
2022-10-11T00:26:03.828Z,8.57
2022-10-11T00:28:33.598Z,8.30
2022-10-11T00:31:00.100Z,7.00
2022-10-11T00:33:26.650Z,7.68
2022-10-11T00:35:53.194Z,8.20
2022-10-11T00:38:20.057Z,7.43
2022-10-11T00:40:46.590Z,6.97
2022-10-11T00:43:25.045Z,7.25
2022-10-11T00:45:57.638Z,6.60
2022-10-11T00:48:32.562Z,6.97
2022-10-11T00:51:03.690Z,6.60
2022-10-11T00:53:33.007Z,6.97
2022-10-11T00:56:08.748Z,6.78
2022-10-11T00:58:37.037Z,7.60
2022-10-11T01:01:04.066Z,7.80
2022-10-11T01:03:32.831Z,6.63
2022-10-11T01:05:59.270Z,6.30
2022-10-11T01:08:26.899Z,6.60
2022-10-11T01:10:53.589Z,5.78
2022-10-11T01:13:34.745Z,7.78
2022-10-11T01:16:13.726Z,6.13
2022-10-11T01:18:52.166Z,6.85
2022-10-11T01:21:27.429Z,5.68
2022-10-11T01:24:15.274Z,5.63
2022-10-11T01:27:19.066Z,6.60
2022-10-11T01:29:57.698Z,8.30
2022-10-11T01:32:59.349Z,8.20
2022-10-11T01:35:45.320Z,7.47
2022-10-11T01:38:17.247Z,7.82
2022-10-11T01:41:23.616Z,8.88
2022-10-11T01:43:55.648Z,9.10
2022-10-11T01:46:23.791Z,8.30
2022-10-11T01:48:52.615Z,8.55
2022-10-11T01:51:25.730Z,8.45
2022-10-11T01:54:01.455Z,8.05
2022-10-11T01:56:52.325Z,8.07
2022-10-11T01:59:30.926Z,8.48
2022-10-11T02:02:29.393Z,8.65
2022-10-11T02:05:26.222Z,8.05
2022-10-11T02:08:05.436Z,7.78
2022-10-11T02:10:41.742Z,6.80
2022-10-11T02:13:18.500Z,7.28
2022-10-11T02:15:47.606Z,7.10
2022-10-11T02:18:20.199Z,7.07
2022-10-11T02:20:48.916Z,7.32
2022-10-11T02:23:23.315Z,7.23
2022-10-11T02:25:52.407Z,6.97
2022-10-11T02:28:23.536Z,6.82
2022-10-11T02:30:52.363Z,7.30
2022-10-11T02:33:25.044Z,7.47
2022-10-11T02:35:59.573Z,7.23
2022-10-11T02:38:30.753Z,7.28
2022-10-11T02:41:05.693Z,8.15
2022-10-11T02:43:57.611Z,6.50
2022-10-11T02:46:25.310Z,7.60
2022-10-11T02:48:52.685Z,7.17
2022-10-11T02:51:19.134Z,7.05
2022-10-11T02:53:45.690Z,7.28
2022-10-11T02:56:12.094Z,6.53
2022-10-11T02:58:38.559Z,7.10
2022-10-11T03:01:05.728Z,7.20
2022-10-11T03:03:32.146Z,7.57
2022-10-11T03:06:02.856Z,7.45
2022-10-11T03:08:29.634Z,7.60
2022-10-11T03:10:56.099Z,7.43
2022-10-11T03:13:22.783Z,8.13
2022-10-11T03:16:02.245Z,9.27
2022-10-11T03:18:29.772Z,9.23
2022-10-11T03:20:56.183Z,8.65
2022-10-11T03:23:22.634Z,8.77
2022-10-11T03:25:49.262Z,7.90
2022-10-11T03:28:15.799Z,8.98
2022-10-11T03:30:42.238Z,9.98
2022-10-11T03:33:08.644Z,7.75
2022-10-11T03:35:35.131Z,8.30
2022-10-11T03:38:01.585Z,7.20
2022-10-11T03:40:28.097Z,9.35
2022-10-11T03:42:56.368Z,12.27
2022-10-11T03:45:22.854Z,8.35
2022-10-11T03:47:49.925Z,8.95
2022-10-11T03:50:16.553Z,8.10
2022-10-11T03:52:43.063Z,8.13
2022-10-11T03:55:09.508Z,8.93
2022-10-11T03:57:35.994Z,7.65
2022-10-11T04:00:02.421Z,7.53
2022-10-11T04:02:28.904Z,8.10
2022-10-11T04:04:55.304Z,8.15
2022-10-11T04:07:21.769Z,8.10
2022-10-11T04:09:48.597Z,7.68
2022-10-11T04:12:15.021Z,7.15
2022-10-11T04:14:41.481Z,8.23
2022-10-11T04:17:07.935Z,6.90
2022-10-11T04:19:36.726Z,7.00
2022-10-11T04:22:04.523Z,6.55
2022-10-11T04:24:31.082Z,6.32
2022-10-11T04:26:57.849Z,7.10
2022-10-11T04:29:27.636Z,7.10
2022-10-11T04:31:56.518Z,7.50
2022-10-11T04:34:23.036Z,7.18
2022-10-11T04:36:50.109Z,7.68
2022-10-11T04:39:16.735Z,8.20
2022-10-11T04:41:43.263Z,7.65
2022-10-11T04:44:09.705Z,8.90
2022-10-11T04:46:36.146Z,8.95
2022-10-11T04:49:02.623Z,8.90
2022-10-11T04:51:29.313Z,8.43
2022-10-11T04:53:55.819Z,8.35
2022-10-11T04:56:22.563Z,8.38
2022-10-11T04:58:49.513Z,9.13
2022-10-11T05:01:16.035Z,8.70
2022-10-11T05:03:43.344Z,7.47
2022-10-11T05:06:10.741Z,7.75
2022-10-11T05:08:37.670Z,8.00
2022-10-11T05:11:06.959Z,7.35
2022-10-11T05:13:34.474Z,8.98
2022-10-11T05:16:01.989Z,6.87
2022-10-11T05:18:30.413Z,8.45
2022-10-11T05:21:09.064Z,7.95
2022-10-11T05:23:36.669Z,7.60
2022-10-11T05:26:04.407Z,8.65
2022-10-11T05:28:31.251Z,7.80
2022-10-11T05:30:58.149Z,8.18
2022-10-11T05:33:25.308Z,7.82
2022-10-11T05:35:51.989Z,7.45
2022-10-11T05:38:18.597Z,8.75
2022-10-11T05:40:45.293Z,7.37
2022-10-11T05:43:11.845Z,7.70
2022-10-11T05:45:40.005Z,8.48
2022-10-11T05:48:06.489Z,8.07
2022-10-11T05:50:33.405Z,8.68
2022-10-11T05:52:59.958Z,8.00
2022-10-11T05:55:26.387Z,7.47
2022-10-11T05:57:54.608Z,7.78
2022-10-11T06:00:22.336Z,7.30
2022-10-11T06:02:48.793Z,8.23
2022-10-11T06:05:15.465Z,7.23
2022-10-11T06:07:42.122Z,7.07
2022-10-11T06:10:09.491Z,8.30
2022-10-11T06:12:36.137Z,8.65
2022-10-11T06:15:03.930Z,7.97
2022-10-11T06:17:30.486Z,7.67
2022-10-11T06:19:56.910Z,8.32
2022-10-11T06:22:23.549Z,8.40
2022-10-11T06:24:50.063Z,8.25
2022-10-11T06:27:16.596Z,7.10
2022-10-11T06:29:43.046Z,8.00
2022-10-11T06:32:09.473Z,8.15
2022-10-11T06:34:36.065Z,8.35
2022-10-11T06:37:02.607Z,8.50
2022-10-11T06:39:29.164Z,8.43
2022-10-11T06:41:55.663Z,8.30
2022-10-11T06:44:22.133Z,8.35
2022-10-11T06:46:48.585Z,7.70
2022-10-11T06:49:18.201Z,7.25
2022-10-11T06:51:47.246Z,7.13
2022-10-11T06:54:13.814Z,7.53
2022-10-11T06:56:40.878Z,7.82
2022-10-11T06:59:07.587Z,8.02
2022-10-11T07:01:34.165Z,8.30
2022-10-11T07:04:01.607Z,7.45
2022-10-11T07:06:30.710Z,7.93
2022-10-11T07:09:00.044Z,7.13
2022-10-11T07:11:28.054Z,7.78
2022-10-11T07:14:00.313Z,8.45
2022-10-11T07:16:27.560Z,8.07
2022-10-11T07:19:00.238Z,7.93
2022-10-11T07:21:28.645Z,8.07
2022-10-11T07:23:55.121Z,8.88
2022-10-11T07:26:21.563Z,8.88
2022-10-11T07:28:48.064Z,8.73
2022-10-11T07:31:20.607Z,10.30
2022-10-11T07:33:47.425Z,10.63
2022-10-11T07:36:15.615Z,10.77
2022-10-11T07:38:43.980Z,9.80
2022-10-11T07:41:10.678Z,11.13
2022-10-11T07:43:38.139Z,9.87
2022-10-11T07:46:05.568Z,10.20
2022-10-11T07:48:34.297Z,9.65
2022-10-11T07:51:16.012Z,8.57
2022-10-11T07:53:48.490Z,8.95
2022-10-11T07:56:18.894Z,8.97
2022-10-11T07:58:53.844Z,8.60
2022-10-11T08:01:20.698Z,8.50
2022-10-11T08:03:48.001Z,8.00
2022-10-11T08:06:17.350Z,8.68
2022-10-11T08:08:44.024Z,8.17
2022-10-11T08:11:10.978Z,8.80
2022-10-11T08:13:37.601Z,7.90
2022-10-11T08:16:11.152Z,7.63
2022-10-11T08:18:37.633Z,7.78
2022-10-11T08:21:09.108Z,7.23
2022-10-11T08:23:35.744Z,6.57
2022-10-11T08:26:02.877Z,7.28
2022-10-11T08:28:29.715Z,7.63
2022-10-11T08:30:56.732Z,6.80
2022-10-11T08:33:24.594Z,7.53
2022-10-11T08:35:52.296Z,6.65
2022-10-11T08:38:19.655Z,7.70
2022-10-11T08:40:52.082Z,7.15
2022-10-11T08:43:44.571Z,6.30
2022-10-11T08:46:13.181Z,6.37
2022-10-11T08:48:45.665Z,6.95
2022-10-11T08:51:30.668Z,7.10
2022-10-11T08:54:04.674Z,6.25
2022-10-11T08:56:37.707Z,6.53
2022-10-11T08:59:32.877Z,5.77
2022-10-11T09:02:49.563Z,6.32
2022-10-11T09:05:23.736Z,6.47
2022-10-11T09:08:13.540Z,6.93
2022-10-11T09:11:04.816Z,6.18
2022-10-11T09:13:58.788Z,5.53
2022-10-11T09:16:36.730Z,5.72
2022-10-11T09:19:06.034Z,6.57
2022-10-11T09:21:39.837Z,6.43
2022-10-11T09:24:45.621Z,6.13
2022-10-11T09:27:50.338Z,5.90
2022-10-11T09:30:19.803Z,5.78
2022-10-11T09:33:04.518Z,5.95
2022-10-11T09:35:38.705Z,6.40
2022-10-11T09:38:13.357Z,5.40
2022-10-11T09:41:11.676Z,4.73
2022-10-11T09:43:38.472Z,5.60
2022-10-11T09:46:20.565Z,4.78
2022-10-11T09:48:47.356Z,5.38
2022-10-11T09:51:19.861Z,5.75
2022-10-11T09:53:49.333Z,5.03
2022-10-11T09:56:15.912Z,4.72
2022-10-11T09:58:42.453Z,4.80
2022-10-11T10:01:11.766Z,4.75
2022-10-11T10:03:43.155Z,4.30
2022-10-11T10:06:15.699Z,4.13
2022-10-11T10:08:43.237Z,4.40
2022-10-11T10:11:11.196Z,4.10
2022-10-11T10:13:51.814Z,4.35
2022-10-11T10:16:30.769Z,4.10
2022-10-11T10:19:19.424Z,3.90
2022-10-11T10:21:49.315Z,3.80
2022-10-11T10:24:28.798Z,4.15
2022-10-11T10:27:21.498Z,3.42
2022-10-11T10:30:08.854Z,3.45
2022-10-11T10:32:55.639Z,3.30
2022-10-11T10:35:55.362Z,3.45
2022-10-11T10:38:36.410Z,3.47
2022-10-11T10:41:14.589Z,3.13
2022-10-11T10:43:43.437Z,3.80
2022-10-11T10:46:16.672Z,3.77
2022-10-11T10:51:53.932Z,3.70
2022-10-11T10:54:23.248Z,3.13
2022-10-11T10:56:57.764Z,2.60
2022-10-11T10:59:49.341Z,3.00
2022-10-11T11:02:40.192Z,3.15
2022-10-11T11:05:22.201Z,2.85
2022-10-11T11:08:12.763Z,3.90
2022-10-11T11:10:49.082Z,3.20
2022-10-11T11:13:23.081Z,3.23
2022-10-11T11:15:55.666Z,2.83
2022-10-11T11:18:59.001Z,3.10
2022-10-11T11:22:06.188Z,2.75
2022-10-11T11:24:46.790Z,3.13
2022-10-11T11:27:25.344Z,3.17
2022-10-11T11:29:56.245Z,3.17
2022-10-11T11:32:45.584Z,2.92
2022-10-11T11:35:27.234Z,2.75
2022-10-11T11:38:06.085Z,2.83
2022-10-11T11:40:49.098Z,3.27
2022-10-11T11:43:23.560Z,3.22
2022-10-11T11:45:55.807Z,2.72
2022-10-11T11:48:25.078Z,4.53
2022-10-11T11:51:02.766Z,2.97
2022-10-11T11:53:50.970Z,2.80
2022-10-11T11:56:27.693Z,3.05
2022-10-11T11:59:18.068Z,2.60
2022-10-11T12:01:59.737Z,3.15
2022-10-11T12:04:36.129Z,3.08
2022-10-11T12:07:17.669Z,2.73
2022-10-11T12:09:50.570Z,2.88
2022-10-11T12:12:26.326Z,2.47
2022-10-11T12:15:22.280Z,2.75
2022-10-11T12:17:54.811Z,2.53
2022-10-11T12:20:25.679Z,3.00
2022-10-11T12:22:55.009Z,2.42
2022-10-11T12:25:28.481Z,2.45
2022-10-11T12:27:57.519Z,2.35
2022-10-11T12:30:42.662Z,2.42
2022-10-11T12:33:46.890Z,2.00
2022-10-11T12:36:34.043Z,2.17
2022-10-11T12:39:18.577Z,2.33
2022-10-11T12:42:17.733Z,2.08
2022-10-11T12:45:13.337Z,2.65
2022-10-11T12:48:01.474Z,2.13
2022-10-11T12:50:51.808Z,2.05
2022-10-11T12:53:43.081Z,2.63
2022-10-11T12:56:18.391Z,2.63
2022-10-11T12:58:47.866Z,2.33
2022-10-11T13:01:22.031Z,2.43
2022-10-11T13:04:00.218Z,2.03
2022-10-11T13:06:28.855Z,2.63
2022-10-11T13:09:10.053Z,3.00
2022-10-11T13:11:44.849Z,2.50
2022-10-11T13:14:17.495Z,2.30
2022-10-11T13:17:08.253Z,2.17
2022-10-11T13:19:37.838Z,2.42
2022-10-11T13:22:15.260Z,2.80
2022-10-11T13:24:42.611Z,2.17
2022-10-11T13:27:18.709Z,2.37
2022-10-11T13:29:46.440Z,2.50
2022-10-11T13:32:16.758Z,2.17
2022-10-11T13:34:47.398Z,2.38
2022-10-11T13:37:20.469Z,2.25
2022-10-11T13:39:49.041Z,2.10
2022-10-11T13:42:17.734Z,2.80
2022-10-11T13:44:45.962Z,2.10
2022-10-11T13:47:18.305Z,2.40
2022-10-11T13:49:47.606Z,2.33
2022-10-11T13:52:23.742Z,2.07
2022-10-11T13:54:53.234Z,2.17
2022-10-11T13:57:22.724Z,1.80
2022-10-11T13:59:49.482Z,2.25
2022-10-11T14:02:22.384Z,2.17
2022-10-11T14:04:49.839Z,1.73
2022-10-11T14:07:29.822Z,1.77
2022-10-11T14:09:56.552Z,1.85
2022-10-11T14:12:25.774Z,1.50
2022-10-11T14:14:52.521Z,1.90
2022-10-11T14:17:40.444Z,1.73
2022-10-11T14:20:40.122Z,1.50
2022-10-11T14:23:06.812Z,1.70
2022-10-11T14:25:33.898Z,1.85
2022-10-11T14:28:00.588Z,1.90
2022-10-11T14:30:28.170Z,1.97
2022-10-11T14:32:57.650Z,2.30
2022-10-11T14:35:27.158Z,1.90
2022-10-11T14:37:53.916Z,2.25
2022-10-11T14:40:24.133Z,2.17
2022-10-11T14:42:50.891Z,1.83
2022-10-11T14:45:18.545Z,1.90
2022-10-11T14:47:45.294Z,2.30
2022-10-11T14:50:44.701Z,2.47
2022-10-11T14:53:11.895Z,1.70
2022-10-11T14:55:41.052Z,2.13
2022-10-11T14:58:09.416Z,2.00
2022-10-11T15:00:36.315Z,2.15
2022-10-11T15:03:03.826Z,1.95
2022-10-11T15:05:34.313Z,2.28
2022-10-11T15:08:02.354Z,2.37
2022-10-11T15:10:35.727Z,2.13
2022-10-11T15:13:02.719Z,2.38
2022-10-11T15:15:32.650Z,2.40
2022-10-11T15:18:00.350Z,1.85
2022-10-11T15:20:31.444Z,1.80
2022-10-11T15:22:59.366Z,2.20
2022-10-11T15:25:27.221Z,2.13
2022-10-11T15:27:53.790Z,2.30
2022-10-11T15:30:46.677Z,2.45
2022-10-11T15:33:13.145Z,2.50
2022-10-11T15:35:39.652Z,2.20
2022-10-11T15:38:09.029Z,2.33
2022-10-11T15:40:36.937Z,2.58
2022-10-11T15:43:04.257Z,3.00
2022-10-11T15:45:31.158Z,2.20
2022-10-11T15:47:58.363Z,2.03
2022-10-11T15:50:41.425Z,2.53
2022-10-11T15:53:16.847Z,3.33
2022-10-11T15:55:45.948Z,2.70
2022-10-11T15:58:15.363Z,2.73
2022-10-11T16:00:43.458Z,2.42
2022-10-11T16:03:12.455Z,2.45
2022-10-11T16:05:39.455Z,2.50
2022-10-11T16:08:06.215Z,2.90
2022-10-11T16:10:32.848Z,2.53
2022-10-11T16:12:59.338Z,2.80
2022-10-11T16:15:26.328Z,2.83
2022-10-11T16:17:52.786Z,3.05
2022-10-11T16:20:22.319Z,2.60
2022-10-11T16:22:50.694Z,3.13
2022-10-11T16:25:17.797Z,3.50
2022-10-11T16:27:44.782Z,3.78
2022-10-11T16:30:12.822Z,3.47
2022-10-11T16:32:40.017Z,3.10
2022-10-11T16:35:07.814Z,3.47
2022-10-11T16:37:35.066Z,4.75
2022-10-11T16:40:01.554Z,4.45
2022-10-11T16:42:28.207Z,4.85
2022-10-11T16:44:54.606Z,5.10
2022-10-11T16:47:21.053Z,4.77
2022-10-11T16:49:47.451Z,4.45
2022-10-11T16:52:15.446Z,4.57
2022-10-11T16:54:46.568Z,3.80
2022-10-11T16:57:15.666Z,3.28
2022-10-11T16:59:42.520Z,3.70
2022-10-11T17:02:16.061Z,4.55
2022-10-11T17:04:42.549Z,5.40
2022-10-11T17:07:14.892Z,5.60
2022-10-11T17:09:44.307Z,4.95
2022-10-11T17:12:13.212Z,4.60
2022-10-11T17:14:41.276Z,5.97
2022-10-11T17:17:09.487Z,6.28
2022-10-11T17:19:39.217Z,7.47
2022-10-11T17:22:10.107Z,13.40
2022-10-11T17:24:36.680Z,12.30
2022-10-11T17:27:03.939Z,9.07
2022-10-11T17:29:30.446Z,6.57
2022-10-11T17:31:56.978Z,5.88
2022-10-11T17:34:23.872Z,5.10
2022-10-11T17:36:50.425Z,4.63
2022-10-11T17:39:19.405Z,3.80
2022-10-11T17:41:46.139Z,4.88
2022-10-11T17:44:13.886Z,5.40
2022-10-11T17:46:40.322Z,7.38
2022-10-11T17:49:08.506Z,6.90
2022-10-11T17:51:36.521Z,5.85
2022-10-11T17:54:03.964Z,4.30
2022-10-11T17:56:36.600Z,3.70
2022-10-11T17:59:04.287Z,3.60
2022-10-11T18:01:30.823Z,4.50
2022-10-11T18:04:03.106Z,4.40
2022-10-11T18:06:33.058Z,4.63
2022-10-11T18:09:01.026Z,4.30
2022-10-11T18:11:27.558Z,4.38
2022-10-11T18:13:54.158Z,5.23
2022-10-11T18:16:24.479Z,5.93
2022-10-11T18:18:51.004Z,7.15
2022-10-11T18:21:18.731Z,6.32
2022-10-11T18:23:45.743Z,5.97
2022-10-11T18:26:18.195Z,5.87
2022-10-11T18:28:45.386Z,4.90
2022-10-11T18:31:18.237Z,9.05
2022-10-11T18:33:46.015Z,9.88
2022-10-11T18:36:15.188Z,11.57
2022-10-11T18:38:46.162Z,12.20
2022-10-11T18:41:15.102Z,13.15
2022-10-11T18:43:41.821Z,14.35
2022-10-11T18:46:11.660Z,13.85
2022-10-11T18:48:42.753Z,13.23
2022-10-11T18:51:19.985Z,14.70
2022-10-11T18:53:47.260Z,14.10
2022-10-11T18:56:16.929Z,14.75
2022-10-11T18:58:44.870Z,14.80
2022-10-11T19:01:16.335Z,15.55
2022-10-11T19:03:44.321Z,15.50
2022-10-11T19:06:17.743Z,13.85
2022-10-11T19:08:46.019Z,13.02
2022-10-11T19:11:14.035Z,14.52
2022-10-11T19:13:40.599Z,13.60
2022-10-11T19:16:10.207Z,10.73
2022-10-11T19:18:41.730Z,9.98
2022-10-11T19:21:12.605Z,9.75
2022-10-11T19:23:41.855Z,10.63
2022-10-11T19:26:13.511Z,11.55
2022-10-11T19:28:40.120Z,11.53
2022-10-11T19:31:09.921Z,12.13
2022-10-11T19:33:36.614Z,14.95
2022-10-11T19:36:05.168Z,15.57
2022-10-11T19:38:33.820Z,13.10
2022-10-11T19:41:01.638Z,15.47
2022-10-11T19:43:28.415Z,15.88
2022-10-11T19:46:01.688Z,11.55
2022-10-11T19:48:28.465Z,10.25
2022-10-11T19:51:06.673Z,10.25
2022-10-11T19:53:33.210Z,7.30
2022-10-11T19:56:02.133Z,11.25
2022-10-11T19:58:29.177Z,14.20
2022-10-11T20:01:19.667Z,14.68
2022-10-11T20:04:22.684Z,14.23
2022-10-11T20:06:57.425Z,13.73
2022-10-11T20:09:29.602Z,14.98
2022-10-11T20:11:56.836Z,17.20
2022-10-11T20:14:23.346Z,15.60
2022-10-11T20:16:50.536Z,15.35
2022-10-11T20:19:17.207Z,14.73
2022-10-11T20:21:43.955Z,10.77
2022-10-11T20:24:10.429Z,10.93
2022-10-11T20:26:37.021Z,11.32
2022-10-11T20:29:03.501Z,11.27
2022-10-11T20:31:33.092Z,11.53
2022-10-11T20:34:02.396Z,12.82
2022-10-11T20:36:30.172Z,12.23
2022-10-11T20:38:58.231Z,13.98
2022-10-11T20:41:34.234Z,15.30
2022-10-11T20:44:02.195Z,15.63
2022-10-11T20:46:31.567Z,15.38
2022-10-11T20:49:03.417Z,16.20
2022-10-11T20:51:31.665Z,16.27
2022-10-11T20:53:58.913Z,15.45
2022-10-11T20:56:26.680Z,15.60
2022-10-11T20:58:55.217Z,14.70
2022-10-11T21:01:28.062Z,14.45
2022-10-11T21:03:57.490Z,15.25
2022-10-11T21:06:24.051Z,14.32
2022-10-11T21:08:50.499Z,15.03
2022-10-11T21:11:17.020Z,13.25
2022-10-11T21:13:43.543Z,14.20
2022-10-11T21:16:14.638Z,12.57
2022-10-11T21:18:41.665Z,13.52
2022-10-11T21:21:13.827Z,12.43
2022-10-11T21:23:41.011Z,12.75
2022-10-11T21:26:10.682Z,12.45
2022-10-11T21:28:37.911Z,10.07
2022-10-11T21:31:13.042Z,9.73
2022-10-11T21:33:40.420Z,10.27
2022-10-11T21:36:12.191Z,11.02
2022-10-11T21:38:39.146Z,12.07
2022-10-11T21:41:11.509Z,12.82
2022-10-11T21:43:38.432Z,11.90
2022-10-11T21:46:10.931Z,12.03
2022-10-11T21:48:37.445Z,12.85
2022-10-11T21:51:04.498Z,12.30
2022-10-11T21:53:31.135Z,11.18
2022-10-11T21:55:58.687Z,11.02
2022-10-11T21:58:25.600Z,11.20
2022-10-11T22:00:52.568Z,9.90
2022-10-11T22:03:19.470Z,10.50
2022-10-11T22:05:47.288Z,11.38
2022-10-11T22:08:14.395Z,11.77
2022-10-11T22:10:45.699Z,12.37
2022-10-11T22:13:12.240Z,11.75
2022-10-11T22:15:39.431Z,11.50
2022-10-11T22:18:06.198Z,11.80
2022-10-11T22:20:33.399Z,12.80
2022-10-11T22:23:00.049Z,9.20
2022-10-11T22:25:26.626Z,12.50
2022-10-11T22:27:53.045Z,11.30
2022-10-11T22:30:19.513Z,10.35
2022-10-11T22:32:45.946Z,11.68
2022-10-11T22:35:12.378Z,10.23
2022-10-11T22:37:38.771Z,10.40
2022-10-11T22:40:05.911Z,10.18
2022-10-11T22:42:32.311Z,10.98
2022-10-11T22:44:58.733Z,9.43
2022-10-11T22:47:25.615Z,10.13
2022-10-11T22:49:52.037Z,8.95
2022-10-11T22:52:18.449Z,8.02
2022-10-11T22:54:44.865Z,8.90
2022-10-11T22:57:11.457Z,13.38
2022-10-11T22:59:37.898Z,15.13
2022-10-11T23:02:04.301Z,14.55
2022-10-11T23:04:30.749Z,11.98
2022-10-11T23:07:01.198Z,9.82
2022-10-11T23:09:31.645Z,8.90
2022-10-11T23:11:59.073Z,8.17
2022-10-11T23:14:25.602Z,9.50
2022-10-11T23:16:52.362Z,7.93
2022-10-11T23:19:18.937Z,8.63
2022-10-11T23:21:45.737Z,8.75
2022-10-11T23:24:12.249Z,8.77
2022-10-11T23:26:38.710Z,8.95
2022-10-11T23:29:05.176Z,8.85
2022-10-11T23:31:31.605Z,9.50
2022-10-11T23:33:58.028Z,8.95
2022-10-11T23:36:25.754Z,9.73
2022-10-11T23:38:54.266Z,9.32
2022-10-11T23:41:21.813Z,9.65
2022-10-11T23:43:48.221Z,10.40
2022-10-11T23:46:15.037Z,9.50
2022-10-11T23:48:41.645Z,8.30
2022-10-11T23:51:08.223Z,8.75
2022-10-11T23:53:35.744Z,8.85
2022-10-11T23:56:02.773Z,8.85
2022-10-11T23:58:29.211Z,9.38
